Time;durP1;ratioP1;P1;durP2;ratioP2;P2;SDS_P1;SDS_P2;PMS_P1;PMS_P2;Temp;Humidity;BMP_temperature;BMP_pressure;BME280_temperature;BME280_humidity;BME280_pressure;Samples;Min_cycle;Max_cycle;Signal;HPM_P1;HPM_P2
2023/06/23 00:00:46;;;;;;;7.45;4.75;;;;;;;21.31;50.37;100300.13;5128833;27;20207;-64
2023/06/23 00:03:15;;;;;;;6.70;4.57;;;;;;;21.28;50.55;100295.88;5132174;27;20199;-64
2023/06/23 00:05:44;;;;;;;5.57;4.88;;;;;;;21.20;50.69;100298.06;5133119;27;20657;-62
2023/06/23 00:08:12;;;;;;;6.55;5.25;;;;;;;21.18;51.17;100303.38;5128398;27;20191;-63
2023/06/23 00:10:40;;;;;;;8.20;5.32;;;;;;;21.18;50.91;100300.75;5136014;27;20210;-63
2023/06/23 00:13:09;;;;;;;12.45;5.47;;;;;;;21.11;51.42;100306.41;5135147;27;20217;-63
2023/06/23 00:15:37;;;;;;;6.13;5.35;;;;;;;21.02;51.85;100312.09;5135976;27;20196;-63
2023/06/23 00:18:05;;;;;;;6.63;4.72;;;;;;;21.02;52.04;100319.94;5134619;27;20272;-64
2023/06/23 00:20:33;;;;;;;7.50;4.90;;;;;;;21.00;51.95;100306.94;5134866;27;20286;-63
2023/06/23 00:23:03;;;;;;;5.07;4.63;;;;;;;20.99;52.33;100303.47;5135387;27;20284;-63
2023/06/23 00:25:30;;;;;;;6.18;4.53;;;;;;;20.96;52.49;100308.03;5141696;27;20199;-62
2023/06/23 00:27:59;;;;;;;5.70;4.75;;;;;;;20.92;52.42;100312.56;5137867;27;20203;-62
2023/06/23 00:30:27;;;;;;;6.00;4.50;;;;;;;20.88;52.56;100307.56;5134132;27;20322;-63
2023/06/23 00:32:55;;;;;;;5.30;4.70;;;;;;;20.86;52.89;100310.25;5135313;27;20209;-64
2023/06/23 00:35:23;;;;;;;6.50;5.03;;;;;;;20.83;53.18;100312.16;5134408;27;20249;-63
2023/06/23 00:37:53;;;;;;;5.95;4.45;;;;;;;20.85;53.15;100305.09;5133852;27;20195;-62
2023/06/23 00:40:24;;;;;;;7.35;4.82;;;;;;;20.84;53.04;100298.16;5138679;27;20205;-61
2023/06/23 00:42:54;;;;;;;5.07;4.57;;;;;;;20.82;53.23;100297.38;5133156;27;20314;-62
2023/06/23 00:45:23;;;;;;;6.75;4.55;;;;;;;20.79;53.30;100297.53;5138895;27;20199;-63
2023/06/23 00:47:52;;;;;;;5.85;4.15;;;;;;;20.78;53.23;100294.06;5132122;27;20210;-62
2023/06/23 00:50:21;;;;;;;4.65;4.25;;;;;;;20.75;52.90;100300.31;5131353;27;20222;-61
2023/06/23 00:52:51;;;;;;;6.35;5.07;;;;;;;20.73;52.63;100296.94;5130401;27;20199;-61
2023/06/23 00:55:20;;;;;;;4.22;3.83;;;;;;;20.70;51.90;100286.59;5134458;27;20286;-62
2023/06/23 00:57:51;;;;;;;8.52;4.13;;;;;;;20.71;51.44;100290.91;5133274;27;20202;-61
2023/06/23 01:00:20;;;;;;;5.70;4.00;;;;;;;20.72;51.06;100284.75;5134073;27;20566;-61
2023/06/23 01:02:50;;;;;;;5.97;4.50;;;;;;;20.70;50.99;100291.84;5131277;27;20226;-61
2023/06/23 01:05:20;;;;;;;4.65;3.80;;;;;;;20.68;50.93;100288.44;5133919;27;20199;-61
2023/06/23 01:07:57;;;;;;;4.22;3.80;;;;;;;20.69;50.88;100282.28;5134278;27;20199;-62
2023/06/23 01:10:35;;;;;;;4.30;3.75;;;;;;;20.66;50.94;100274.59;5131837;27;20203;-61
2023/06/23 01:13:13;;;;;;;4.25;3.85;;;;;;;20.63;50.62;100274.75;5133507;27;20226;-62
2023/06/23 01:15:45;;;;;;;4.68;3.92;;;;;;;20.62;51.41;100278.28;5133998;27;20252;-63
2023/06/23 01:18:24;;;;;;;5.25;4.05;;;;;;;20.57;51.47;100272.41;5134007;27;20199;-62
2023/06/23 01:20:54;;;;;;;5.20;4.15;;;;;;;20.52;52.00;100273.56;5128073;27;20203;-61
2023/06/23 01:23:45;;;;;;;5.50;4.25;;;;;;;20.48;52.42;100259.75;5125982;27;20314;-61
2023/06/23 01:26:29;;;;;;;4.88;4.07;;;;;;;20.44;52.37;100269.53;5131887;27;20218;-61
2023/06/23 01:29:01;;;;;;;4.82;4.13;;;;;;;20.39;52.71;100261.03;5133298;27;20209;-61
2023/06/23 01:31:37;;;;;;;5.22;4.10;;;;;;;20.35;52.75;100263.88;5133969;27;20246;-62
2023/06/23 01:34:10;;;;;;;7.57;3.78;;;;;;;20.33;53.44;100255.28;5121309;27;20199;-61
2023/06/23 01:36:42;;;;;;;7.93;4.55;;;;;;;20.33;53.54;100258.72;5133596;27;20206;-61
2023/06/23 01:39:16;;;;;;;4.80;4.30;;;;;;;20.27;53.75;100252.00;5132594;27;20199;-62
2023/06/23 01:41:52;;;;;;;4.10;3.70;;;;;;;20.23;53.89;100249.63;5132518;27;20619;-60
2023/06/23 01:44:24;;;;;;;6.30;4.45;;;;;;;20.18;54.15;100246.41;5127438;27;20200;-61
2023/06/23 01:46:56;;;;;;;5.10;4.50;;;;;;;20.17;54.34;100248.13;5132474;27;21140;-60
2023/06/23 01:49:27;;;;;;;4.82;4.25;;;;;;;20.14;54.52;100245.69;5137346;27;20226;-60
2023/06/23 01:51:57;;;;;;;4.57;4.05;;;;;;;20.19;54.69;100253.31;5134661;27;20266;-61
2023/06/23 01:54:27;;;;;;;4.32;3.92;;;;;;;20.22;54.38;100269.72;5134845;27;20199;-60
2023/06/23 01:56:56;;;;;;;4.97;4.47;;;;;;;20.23;54.44;100265.31;5133535;27;20624;-63
2023/06/23 01:59:27;;;;;;;5.00;4.32;;;;;;;20.21;54.30;100262.78;5132750;27;20195;-60
2023/06/23 02:01:58;;;;;;;5.45;4.30;;;;;;;20.20;54.79;100261.06;5128795;27;20207;-61
2023/06/23 02:04:29;;;;;;;6.28;4.20;;;;;;;20.17;55.08;100265.59;5128087;27;20203;-61
2023/06/23 02:06:59;;;;;;;5.25;3.92;;;;;;;20.15;54.84;100263.06;5128348;27;20207;-61
2023/06/23 02:09:33;;;;;;;4.78;4.10;;;;;;;20.11;54.87;100261.53;5133030;27;20674;-62
2023/06/23 02:12:06;;;;;;;5.10;3.88;;;;;;;20.07;55.17;100259.97;5132212;27;20198;-61
2023/06/23 02:14:37;;;;;;;4.55;4.15;;;;;;;20.04;55.31;100254.91;5133076;27;20675;-61
2023/06/23 02:17:09;;;;;;;4.30;3.88;;;;;;;19.98;55.26;100269.09;5130310;27;20195;-61
2023/06/23 02:19:40;;;;;;;4.68;3.70;;;;;;;19.97;55.51;100266.56;5131597;27;20210;-60
2023/06/23 02:22:11;;;;;;;4.63;3.55;;;;;;;19.95;55.43;100269.22;5132250;27;20646;-61
2023/06/23 02:24:40;;;;;;;3.90;3.50;;;;;;;19.96;55.53;100270.09;5131856;27;20234;-61
2023/06/23 02:27:09;;;;;;;5.63;3.70;;;;;;;19.95;55.42;100260.53;5131442;27;20622;-60
2023/06/23 02:29:41;;;;;;;4.28;3.60;;;;;;;19.93;55.21;100259.78;5128905;27;20241;-60
2023/06/23 02:32:17;;;;;;;3.97;3.55;;;;;;;19.96;55.02;100257.03;5132476;27;20620;-61
2023/06/23 02:34:46;;;;;;;5.07;3.70;;;;;;;19.99;54.79;100259.47;5117509;27;20259;-61
2023/06/23 02:37:18;;;;;;;5.88;3.55;;;;;;;19.96;54.76;100251.81;5134677;27;20327;-60
2023/06/23 02:39:49;;;;;;;4.97;3.80;;;;;;;20.00;54.82;100242.88;5132714;27;20218;-60
2023/06/23 02:42:19;;;;;;;5.22;3.80;;;;;;;20.02;54.68;100246.25;5134197;27;20889;-63
2023/06/23 02:44:54;;;;;;;5.35;4.45;;;;;;;20.02;54.80;100252.34;5130076;27;20618;-61
2023/06/23 02:47:25;;;;;;;5.07;3.50;;;;;;;20.05;54.65;100256.59;5128659;27;20206;-61
2023/06/23 02:50:00;;;;;;;4.57;3.47;;;;;;;20.08;54.32;100248.59;5130674;27;20555;-61
2023/06/23 02:52:34;;;;;;;5.15;3.45;;;;;;;20.05;54.52;100255.75;5138750;27;20565;-61
2023/06/23 02:55:05;;;;;;;4.57;4.18;;;;;;;20.07;54.37;100259.09;5130378;27;20199;-60
2023/06/23 02:57:35;;;;;;;3.83;3.42;;;;;;;20.04;53.97;100249.66;5131780;27;20252;-60
2023/06/23 03:00:13;;;;;;;4.18;3.40;;;;;;;19.99;54.52;100257.75;5131744;27;20252;-59
2023/06/23 03:02:43;;;;;;;3.85;3.42;;;;;;;19.95;54.57;100258.78;5123798;27;20245;-60
2023/06/23 03:05:11;;;;;;;3.97;3.28;;;;;;;19.90;54.69;100237.22;5126322;27;20195;-59
2023/06/23 03:07:39;;;;;;;5.63;3.97;;;;;;;19.88;54.70;100232.97;5132816;27;20618;-62
2023/06/23 03:10:08;;;;;;;4.30;3.53;;;;;;;19.86;54.56;100225.22;5132009;27;20207;-60
2023/06/23 03:12:37;;;;;;;3.97;3.10;;;;;;;19.84;54.66;100227.03;5132102;27;20650;-61
2023/06/23 03:15:07;;;;;;;4.10;3.38;;;;;;;19.79;54.94;100219.44;5131344;27;20199;-61
2023/06/23 03:17:39;;;;;;;3.95;3.60;;;;;;;19.77;55.03;100213.44;5130066;27;20244;-61
2023/06/23 03:20:11;;;;;;;4.22;3.65;;;;;;;19.74;55.13;100218.81;5129451;27;20709;-63
2023/06/23 03:22:44;;;;;;;4.00;3.30;;;;;;;19.68;55.33;100216.47;5128501;27;20199;-62
2023/06/23 03:25:25;;;;;;;5.78;3.70;;;;;;;19.71;55.32;100220.72;5131108;27;20203;-61
2023/06/23 03:27:56;;;;;;;3.47;3.13;;;;;;;19.70;55.13;100225.09;5131253;27;20657;-62
2023/06/23 03:30:31;;;;;;;5.15;3.45;;;;;;;19.74;55.05;100221.41;5130060;27;20223;-59
2023/06/23 03:33:04;;;;;;;6.00;3.63;;;;;;;19.76;55.03;100230.03;5131019;27;20207;-60
2023/06/23 03:35:38;;;;;;;5.40;3.78;;;;;;;19.79;54.59;100245.56;5131960;28;20209;-60
2023/06/23 03:38:10;;;;;;;4.78;4.22;;;;;;;19.86;54.53;100237.44;5134021;27;20207;-58
2023/06/23 03:40:42;;;;;;;3.80;3.40;;;;;;;19.96;53.99;100236.09;5124175;27;20298;-60
2023/06/23 03:43:14;;;;;;;4.15;3.50;;;;;;;20.04;53.27;100254.91;5133943;27;20262;-59
2023/06/23 03:45:49;;;;;;;5.80;2.72;;;;;;;20.12;52.99;100265.84;5135403;27;20195;-58
2023/06/23 03:48:20;;;;;;;4.13;3.55;;;;;;;20.21;52.60;100285.47;5135201;27;20198;-59
2023/06/23 03:50:51;;;;;;;3.33;2.88;;;;;;;20.25;52.48;100282.66;5136134;27;20642;-60
2023/06/23 03:53:21;;;;;;;3.83;3.30;;;;;;;20.33;52.42;100286.69;5136448;27;20191;-58
2023/06/23 03:55:51;;;;;;;5.93;3.22;;;;;;;20.39;52.17;100292.44;5129667;27;20199;-60
2023/06/23 03:58:21;;;;;;;5.38;3.40;;;;;;;20.43;52.01;100280.06;5134008;27;20244;-59
2023/06/23 04:00:53;;;;;;;6.22;3.10;;;;;;;20.46;52.07;100256.34;5125971;27;20609;-59
2023/06/23 04:03:22;;;;;;;4.07;3.00;;;;;;;20.44;52.15;100250.38;5134638;27;20218;-60
2023/06/23 04:05:52;;;;;;;3.75;3.28;;;;;;;20.45;52.76;100250.28;5139665;27;20713;-60
2023/06/23 04:08:23;;;;;;;4.15;3.30;;;;;;;20.47;52.70;100255.41;5134610;27;20547;-59
2023/06/23 04:10:53;;;;;;;3.78;3.03;;;;;;;20.50;52.47;100250.06;5135911;27;20290;-59
2023/06/23 04:13:23;;;;;;;4.03;3.50;;;;;;;20.58;52.30;100234.81;5135549;27;20214;-60
2023/06/23 04:15:56;;;;;;;3.53;3.22;;;;;;;20.61;52.45;100213.72;5132825;27;20238;-59
2023/06/23 04:18:25;;;;;;;3.90;3.08;;;;;;;20.55;52.20;100208.81;5135638;27;20222;-59
2023/06/23 04:20:55;;;;;;;4.38;3.55;;;;;;;20.46;52.87;100212.69;5134453;27;20203;-60
2023/06/23 04:23:25;;;;;;;4.80;3.40;;;;;;;20.44;52.85;100203.25;5131874;27;20203;-61
2023/06/23 04:25:56;;;;;;;4.70;3.72;;;;;;;20.41;52.89;100188.53;5131992;27;20199;-60
2023/06/23 04:28:26;;;;;;;5.30;3.67;;;;;;;20.46;53.41;100172.59;5134084;27;20638;-60
2023/06/23 04:30:59;;;;;;;5.85;3.50;;;;;;;20.47;52.73;100179.50;5133634;27;20233;-59
2023/06/23 04:33:27;;;;;;;5.10;3.38;;;;;;;20.56;53.15;100186.94;5127868;27;20203;-60
2023/06/23 04:36:02;;;;;;;5.95;3.60;;;;;;;20.61;52.34;100177.06;5135016;27;20215;-60
2023/06/23 04:38:34;;;;;;;4.78;3.25;;;;;;;20.70;52.22;100179.25;5135473;27;20195;-60
2023/06/23 04:41:08;;;;;;;5.95;3.60;;;;;;;20.88;52.31;100181.84;5130992;27;20617;-60
2023/06/23 04:43:41;;;;;;;3.58;3.13;;;;;;;21.03;51.43;100198.53;5131845;27;20229;-59
2023/06/23 04:46:16;;;;;;;3.58;3.03;;;;;;;21.18;50.77;100206.44;5132597;27;20199;-61
2023/06/23 04:48:54;;;;;;;5.78;3.50;;;;;;;21.34;50.09;100203.84;5132946;27;20209;-59
2023/06/23 04:51:28;;;;;;;7.13;3.38;;;;;;;21.50;49.60;100208.28;5133882;27;20203;-60
2023/06/23 04:54:01;;;;;;;5.85;3.10;;;;;;;21.59;49.56;100203.38;5134944;27;20207;-60
2023/06/23 04:56:34;;;;;;;8.52;3.30;;;;;;;21.64;49.10;100201.34;5130372;27;20211;-60
2023/06/23 04:59:06;;;;;;;4.55;3.20;;;;;;;21.79;48.22;100225.03;5129570;27;20200;-59
2023/06/23 05:01:37;;;;;;;4.50;2.95;;;;;;;21.80;48.42;100227.59;5133571;27;20734;-60
2023/06/23 05:04:08;;;;;;;4.00;3.10;;;;;;;21.84;48.47;100220.41;5134281;27;20215;-60
2023/06/23 05:06:39;;;;;;;4.40;3.00;;;;;;;21.99;48.67;100219.53;5133878;27;20260;-61
2023/06/23 05:09:09;;;;;;;3.25;2.95;;;;;;;22.03;48.03;100213.19;5134728;27;20541;-60
2023/06/23 05:11:39;;;;;;;4.57;3.30;;;;;;;22.04;48.24;100209.63;5132385;27;20252;-61
2023/06/23 05:14:09;;;;;;;6.38;2.83;;;;;;;22.08;48.15;100191.94;5133291;27;20199;-60
2023/06/23 05:16:41;;;;;;;5.10;2.70;;;;;;;21.98;47.76;100178.47;5135668;27;20206;-59
2023/06/23 05:19:11;;;;;;;4.60;2.63;;;;;;;22.06;47.22;100170.19;5131807;27;20729;-60
2023/06/23 05:21:41;;;;;;;3.50;2.60;;;;;;;22.13;47.36;100166.28;5134414;27;20203;-60
2023/06/23 05:24:13;;;;;;;6.25;3.00;;;;;;;22.10;47.36;100175.16;5132315;27;20230;-61
2023/06/23 05:26:43;;;;;;;7.45;2.95;;;;;;;22.06;47.14;100178.91;5133079;27;20233;-62
2023/06/23 05:29:14;;;;;;;5.90;2.70;;;;;;;22.03;47.06;100188.72;5134355;27;20208;-63
2023/06/23 05:31:45;;;;;;;3.72;2.92;;;;;;;22.11;47.20;100208.34;5123715;27;21090;-60
2023/06/23 05:34:18;;;;;;;4.13;3.22;;;;;;;22.22;46.99;100210.38;5124889;27;20219;-60
2023/06/23 05:36:49;;;;;;;2.42;2.22;;;;;;;22.19;46.70;100205.31;5130845;27;20195;-60
2023/06/23 05:39:20;;;;;;;3.97;2.97;;;;;;;22.21;46.41;100205.25;5132395;27;20207;-60
2023/06/23 05:41:48;;;;;;;3.67;2.78;;;;;;;22.36;46.74;100209.59;5127013;27;20554;-60
2023/06/23 05:44:16;;;;;;;2.85;2.60;;;;;;;22.64;46.23;100209.69;5123652;27;20655;-61
2023/06/23 05:46:49;;;;;;;3.10;2.80;;;;;;;23.04;45.53;100211.72;5131405;27;20199;-64
2023/06/23 05:49:21;;;;;;;5.40;2.95;;;;;;;23.21;44.42;100214.19;5136395;27;20631;-60
2023/06/23 05:51:56;;;;;;;4.53;2.88;;;;;;;23.36;44.54;100212.38;5130166;27;20200;-61
2023/06/23 05:54:29;;;;;;;4.05;3.03;;;;;;;23.61;43.77;100211.72;5136810;27;20701;-59
2023/06/23 05:57:01;;;;;;;4.60;2.67;;;;;;;23.68;43.13;100206.94;5141161;27;20234;-61
2023/06/23 05:59:39;;;;;;;3.97;2.78;;;;;;;23.91;43.39;100213.34;5137539;27;20205;-60
2023/06/23 06:02:13;;;;;;;3.80;2.50;;;;;;;24.24;42.84;100215.59;5127070;27;20210;-60
2023/06/23 06:04:42;;;;;;;6.18;2.92;;;;;;;24.46;41.93;100202.72;5126689;27;20327;-62
2023/06/23 06:07:11;;;;;;;2.65;2.45;;;;;;;24.55;41.76;100185.44;5132567;27;20206;-61
2023/06/23 06:09:40;;;;;;;4.35;2.53;;;;;;;24.35;42.17;100181.47;5131992;27;20624;-60
2023/06/23 06:12:13;;;;;;;3.40;2.78;;;;;;;23.99;42.86;100195.28;5132649;27;20286;-62
2023/06/23 06:14:43;;;;;;;4.57;2.38;;;;;;;23.69;43.76;100179.69;5130388;27;20278;-60
2023/06/23 06:17:17;;;;;;;3.63;2.33;;;;;;;23.43;44.47;100182.16;5126942;27;20578;-61
2023/06/23 06:19:46;;;;;;;4.63;2.70;;;;;;;23.36;44.71;100186.94;5132538;27;20637;-61
2023/06/23 06:22:16;;;;;;;5.28;3.08;;;;;;;23.41;44.30;100167.38;5131698;27;20200;-60
2023/06/23 06:24:49;;;;;;;2.45;2.25;;;;;;;23.30;44.86;100144.41;5121489;27;20235;-59
2023/06/23 06:27:18;;;;;;;3.35;2.70;;;;;;;23.13;45.54;100127.91;5136405;27;20203;-60
2023/06/23 06:29:48;;;;;;;3.60;2.50;;;;;;;23.10;46.19;100127.25;5126813;27;20612;-60
2023/06/23 06:32:19;;;;;;;6.95;3.25;;;;;;;23.00;46.53;100129.59;5124183;27;20796;-59
2023/06/23 06:34:49;;;;;;;6.00;2.47;;;;;;;22.95;46.66;100131.69;5123775;27;20206;-59
2023/06/23 06:37:19;;;;;;;6.63;2.88;;;;;;;22.87;47.18;100131.28;5121869;27;20208;-60
2023/06/23 06:39:48;;;;;;;3.67;2.83;;;;;;;22.94;47.18;100130.00;5131124;27;20634;-61
2023/06/23 06:42:16;;;;;;;4.55;2.90;;;;;;;23.02;47.39;100133.00;5130449;27;20211;-59
2023/06/23 06:44:44;;;;;;;5.72;3.00;;;;;;;23.10;47.14;100133.34;5131818;27;20250;-60
2023/06/23 06:47:13;;;;;;;5.10;3.03;;;;;;;23.18;47.21;100148.66;5131633;27;20592;-61
2023/06/23 06:49:43;;;;;;;3.75;2.70;;;;;;;23.13;47.47;100153.34;5132415;27;20199;-60
2023/06/23 06:52:11;;;;;;;5.55;3.05;;;;;;;23.10;47.33;100159.63;5129304;27;20209;-59
2023/06/23 06:54:40;;;;;;;3.60;3.15;;;;;;;23.15;47.56;100170.69;5126841;27;20654;-60
2023/06/23 06:57:10;;;;;;;7.93;3.20;;;;;;;23.20;47.71;100180.09;5128284;27;20263;-59
2023/06/23 06:59:38;;;;;;;4.82;3.47;;;;;;;23.23;47.39;100185.16;5131798;27;20213;-61
2023/06/23 07:02:07;;;;;;;8.57;3.30;;;;;;;23.24;47.41;100177.19;5126854;27;20192;-59
2023/06/23 07:04:37;;;;;;;4.93;3.05;;;;;;;23.28;47.65;100183.09;5123455;27;20275;-60
2023/06/23 07:07:06;;;;;;;7.15;3.53;;;;;;;23.28;47.54;100172.59;5126360;27;20244;-61
2023/06/23 07:09:34;;;;;;;5.50;3.33;;;;;;;23.30;47.72;100178.56;5126504;27;20579;-60
2023/06/23 07:12:03;;;;;;;5.65;3.90;;;;;;;23.31;47.77;100161.88;5129601;27;20192;-63
2023/06/23 07:14:31;;;;;;;7.07;3.55;;;;;;;23.30;47.84;100152.28;5129113;27;20211;-60
2023/06/23 07:16:59;;;;;;;5.53;3.50;;;;;;;23.24;47.97;100135.13;5124880;27;20195;-60
2023/06/23 07:19:27;;;;;;;3.45;3.10;;;;;;;23.26;48.06;100122.72;5123706;27;20678;-59
2023/06/23 07:21:55;;;;;;;5.38;3.22;;;;;;;23.23;48.48;100120.28;5125491;27;20237;-60
2023/06/23 07:24:24;;;;;;;6.78;3.58;;;;;;;23.22;48.73;100121.22;5123933;27;20822;-60
2023/06/23 07:26:53;;;;;;;5.38;3.50;;;;;;;23.26;48.65;100127.97;5122334;27;20310;-60
2023/06/23 07:29:21;;;;;;;7.60;3.72;;;;;;;23.32;48.60;100121.50;5128895;27;20286;-60
2023/06/23 07:31:55;;;;;;;4.88;3.72;;;;;;;23.37;48.88;100115.00;5120229;27;20231;-63
2023/06/23 07:34:23;;;;;;;9.05;3.83;;;;;;;23.42;48.67;100109.47;5128048;27;20207;-64
2023/06/23 07:36:54;;;;;;;6.15;3.67;;;;;;;23.46;48.65;100108.31;5127239;27;20607;-62
2023/06/23 07:39:23;;;;;;;6.93;4.10;;;;;;;23.42;48.65;100104.19;5127246;27;20210;-63
2023/06/23 07:41:52;;;;;;;3.95;3.55;;;;;;;23.32;49.29;100117.06;5127479;27;20237;-60
2023/06/23 07:44:21;;;;;;;6.15;4.38;;;;;;;23.30;49.61;100124.19;5128469;27;20572;-65
2023/06/23 07:46:49;;;;;;;7.65;4.00;;;;;;;23.25;49.87;100130.72;5130498;28;20799;-62
2023/06/23 07:49:17;;;;;;;4.72;4.00;;;;;;;23.27;49.95;100120.91;5128259;27;20230;-64
2023/06/23 07:51:45;;;;;;;4.90;3.95;;;;;;;23.32;50.17;100127.59;5122339;27;20211;-62
2023/06/23 07:54:13;;;;;;;4.68;4.05;;;;;;;23.36;50.53;100128.25;5129990;27;20206;-63
2023/06/23 07:56:42;;;;;;;8.63;4.53;;;;;;;23.39;50.30;100130.69;5130364;28;20202;-63
2023/06/23 07:59:10;;;;;;;10.90;4.28;;;;;;;23.43;50.30;100118.19;5130467;27;20604;-63
2023/06/23 08:01:39;;;;;;;7.65;4.43;;;;;;;23.41;50.60;100120.06;5130989;27;20215;-64
2023/06/23 08:04:09;;;;;;;5.85;4.63;;;;;;;23.37;50.93;100116.78;5134463;27;20209;-64
2023/06/23 08:06:40;;;;;;;8.38;4.53;;;;;;;23.33;51.10;100112.66;5128470;27;20219;-64
2023/06/23 08:09:08;;;;;;;6.85;4.53;;;;;;;23.37;51.27;100111.50;5133159;27;20211;-64
2023/06/23 08:11:38;;;;;;;7.68;4.57;;;;;;;23.34;51.58;100107.31;5128534;27;20666;-63
2023/06/23 08:14:07;;;;;;;8.95;4.68;;;;;;;23.34;52.26;100107.31;5128463;27;20199;-63
2023/06/23 08:16:35;;;;;;;9.23;5.22;;;;;;;23.34;52.67;100109.06;5131084;28;20565;-64
2023/06/23 08:19:04;;;;;;;6.40;4.88;;;;;;;23.30;52.63;100105.81;5130540;27;20240;-62
2023/06/23 08:21:35;;;;;;;8.57;5.30;;;;;;;23.28;53.19;100105.06;5128439;27;20244;-62
2023/06/23 08:24:04;;;;;;;6.50;4.80;;;;;;;23.28;53.53;100094.56;5128958;27;20615;-62
2023/06/23 08:26:32;;;;;;;7.53;6.18;;;;;;;23.23;54.15;100095.78;5129535;27;20245;-63
2023/06/23 08:29:00;;;;;;;10.02;6.03;;;;;;;23.24;54.43;100094.84;5134412;27;20239;-62
2023/06/23 08:31:29;;;;;;;8.07;5.15;;;;;;;23.18;55.10;100080.28;5130482;27;20274;-61
2023/06/23 08:33:58;;;;;;;8.43;5.80;;;;;;;23.14;56.15;100077.00;5137289;27;20195;-62
2023/06/23 08:36:26;;;;;;;6.88;5.45;;;;;;;23.08;57.68;100077.41;5132777;27;20195;-61
2023/06/23 08:38:54;;;;;;;7.70;5.88;;;;;;;23.04;58.43;100069.81;5131633;27;20235;-63
2023/06/23 08:41:22;;;;;;;10.07;6.57;;;;;;;22.88;58.95;100048.88;5129136;27;20213;-63
2023/06/23 08:43:54;;;;;;;7.28;6.32;;;;;;;22.85;59.84;100051.69;5137076;27;20630;-62
2023/06/23 08:46:29;;;;;;;8.07;6.55;;;;;;;22.80;60.41;100048.53;5132442;27;20219;-61
2023/06/23 08:49:04;;;;;;;7.88;6.53;;;;;;;22.73;60.92;100026.19;5129958;27;20650;-62
2023/06/23 08:51:34;;;;;;;9.02;6.93;;;;;;;22.66;61.54;100026.56;5133353;27;20206;-65
2023/06/23 08:54:02;;;;;;;10.07;7.03;;;;;;;22.58;62.04;99999.09;5131203;27;20238;-62
2023/06/23 08:56:32;;;;;;;9.80;7.22;;;;;;;22.40;62.85;99985.31;5131779;27;20195;-62
2023/06/23 08:59:01;;;;;;;12.30;8.23;;;;;;;22.24;63.93;99950.44;5133101;27;20250;-62
2023/06/23 09:01:31;;;;;;;9.02;7.40;;;;;;;22.03;64.95;99921.09;5136247;27;20198;-65
2023/06/23 09:04:03;;;;;;;11.23;7.43;;;;;;;21.87;66.01;99894.91;5129925;27;20211;-65
2023/06/23 09:06:31;;;;;;;10.60;6.68;;;;;;;21.67;67.33;99868.13;5134031;27;20222;-66
2023/06/23 09:08:59;;;;;;;8.05;6.93;;;;;;;21.48;68.62;99859.69;5129575;27;20642;-65
2023/06/23 09:11:28;;;;;;;8.30;7.38;;;;;;;21.43;69.11;99873.06;5137137;27;20666;-65
2023/06/23 09:13:57;;;;;;;11.88;8.88;;;;;;;21.42;69.58;99881.00;5131637;27;20253;-63
2023/06/23 09:16:27;;;;;;;12.48;9.85;;;;;;;21.41;69.67;99874.09;5132778;27;20203;-64
2023/06/23 09:18:56;;;;;;;9.75;8.75;;;;;;;21.38;70.27;99843.66;5129058;27;20569;-64
2023/06/23 09:21:26;;;;;;;13.35;9.43;;;;;;;21.37;70.59;99846.38;5129939;27;20195;-63
2023/06/23 09:24:01;;;;;;;17.70;9.23;;;;;;;21.34;71.16;99843.94;5130665;27;20209;-63
2023/06/23 09:26:29;;;;;;;10.02;8.93;;;;;;;21.33;70.85;99855.31;5135172;27;20214;-65
2023/06/23 09:29:16;;;;;;;10.70;9.27;;;;;;;21.35;70.71;99877.06;5137615;27;20237;-66
2023/06/23 09:31:45;;;;;;;10.82;9.48;;;;;;;21.37;71.23;99888.31;5135157;27;20647;-66
2023/06/23 09:34:22;;;;;;;12.40;9.30;;;;;;;21.46;71.01;99904.31;5131578;27;20196;-66
2023/06/23 09:36:53;;;;;;;11.63;9.73;;;;;;;21.48;71.26;99917.34;5132805;27;20819;-65
2023/06/23 09:39:22;;;;;;;12.13;10.25;;;;;;;21.52;70.99;99918.03;5129326;27;20561;-66
2023/06/23 09:41:57;;;;;;;14.20;10.93;;;;;;;21.56;70.92;99920.38;5132431;27;20279;-64
2023/06/23 09:44:33;;;;;;;11.73;9.43;;;;;;;21.61;70.67;99962.88;5126667;27;20202;-64
2023/06/23 09:47:02;;;;;;;14.05;10.70;;;;;;;21.71;70.89;99984.19;5132756;27;20684;-65
2023/06/23 09:49:38;;;;;;;12.82;10.90;;;;;;;21.83;71.82;99990.47;5131134;27;20213;-65
2023/06/23 09:52:09;;;;;;;12.68;11.32;;;;;;;21.82;72.47;100015.03;5126114;27;20203;-64
2023/06/23 09:54:39;;;;;;;12.70;11.13;;;;;;;21.78;72.58;100026.63;5129772;27;20581;-66
2023/06/23 09:57:09;;;;;;;14.65;10.90;;;;;;;21.76;73.51;100044.22;5129835;27;20206;-65
2023/06/23 09:59:39;;;;;;;15.45;12.05;;;;;;;21.72;73.80;100077.66;5131048;27;20570;-65
2023/06/23 10:02:09;;;;;;;12.50;11.20;;;;;;;21.68;73.96;100089.25;5131751;27;20307;-63
2023/06/23 10:04:38;;;;;;;13.90;10.88;;;;;;;21.63;74.14;100102.63;5131704;27;20252;-64
2023/06/23 10:07:22;;;;;;;11.85;10.68;;;;;;;21.59;74.74;100124.72;5134777;27;20251;-66
2023/06/23 10:09:52;;;;;;;13.98;11.82;;;;;;;21.52;75.15;100128.59;5131597;27;20569;-65
2023/06/23 10:12:29;;;;;;;12.70;11.30;;;;;;;21.43;75.25;100140.47;5135844;27;20216;-65
2023/06/23 10:14:58;;;;;;;18.40;11.80;;;;;;;21.37;75.61;100155.66;5134934;27;20624;-67
2023/06/23 10:17:27;;;;;;;12.57;11.35;;;;;;;21.34;75.81;100150.59;5127056;27;20279;-64
2023/06/23 10:19:56;;;;;;;13.25;11.95;;;;;;;21.29;75.83;100147.34;5134032;27;20228;-66
2023/06/23 10:22:27;;;;;;;18.98;11.90;;;;;;;21.31;75.93;100153.34;5127711;27;20203;-65
2023/06/23 10:24:57;;;;;;;13.30;12.00;;;;;;;21.30;75.82;100143.78;5134925;27;20206;-65
2023/06/23 10:27:27;;;;;;;17.13;11.85;;;;;;;21.34;75.79;100140.09;5133074;27;20215;-66
2023/06/23 10:29:58;;;;;;;13.07;11.68;;;;;;;21.41;75.99;100144.09;5132376;27;20207;-66
2023/06/23 10:32:28;;;;;;;16.83;11.70;;;;;;;21.46;75.60;100147.28;5085496;28;20200;-64
2023/06/23 10:34:57;;;;;;;13.20;11.93;;;;;;;21.51;75.94;100153.16;5092086;28;20201;-64
2023/06/23 10:37:28;;;;;;;12.85;11.48;;;;;;;21.58;75.12;100143.16;5092169;28;20597;-65
2023/06/23 10:40:15;;;;;;;14.73;12.40;;;;;;;21.68;74.87;100153.03;5087168;28;20201;-65
2023/06/23 10:42:48;;;;;;;14.15;12.65;;;;;;;21.83;74.58;100143.44;5091664;28;20200;-65
2023/06/23 10:45:17;;;;;;;14.75;11.95;;;;;;;21.94;73.60;100148.97;5091875;28;20291;-65
2023/06/23 10:47:46;;;;;;;13.07;11.77;;;;;;;22.06;73.12;100147.41;5089898;28;20217;-65
2023/06/23 10:50:15;;;;;;;15.02;12.50;;;;;;;22.11;72.09;100147.97;5091187;28;20208;-65
2023/06/23 10:52:45;;;;;;;12.75;11.45;;;;;;;22.14;71.55;100150.47;5091548;28;20200;-63
2023/06/23 10:55:36;;;;;;;12.88;11.57;;;;;;;22.16;71.08;100148.59;5076276;28;20659;-64
2023/06/23 10:58:08;;;;;;;12.85;11.55;;;;;;;22.20;71.31;100151.88;5091607;28;20251;-64
2023/06/23 11:00:36;;;;;;;15.13;12.25;;;;;;;22.23;70.09;100154.31;5088877;28;20205;-66
2023/06/23 11:03:09;;;;;;;12.80;11.38;;;;;;;22.19;69.35;100145.78;5090579;28;20609;-64
2023/06/23 11:05:42;;;;;;;12.35;10.43;;;;;;;22.23;69.05;100150.84;5093903;28;20246;-64
2023/06/23 11:08:13;;;;;;;12.48;11.15;;;;;;;22.27;68.23;100155.00;5089643;28;20311;-64
2023/06/23 11:10:49;;;;;;;12.15;10.93;;;;;;;22.22;67.71;100151.81;5089347;28;20205;-64
2023/06/23 11:13:17;;;;;;;12.85;11.52;;;;;;;22.29;67.86;100145.25;5087730;28;20735;-63
2023/06/23 11:15:54;;;;;;;16.02;11.98;;;;;;;22.41;67.47;100134.03;5087353;28;20234;-64
2023/06/23 11:18:23;;;;;;;13.75;11.30;;;;;;;22.51;66.80;100132.56;5086586;28;20200;-65
2023/06/23 11:20:52;;;;;;;12.07;10.75;;;;;;;22.72;66.73;100132.19;5087090;28;20228;-64
2023/06/23 11:23:21;;;;;;;13.50;10.85;;;;;;;22.83;66.01;100142.91;5088059;28;20291;-63
2023/06/23 11:25:51;;;;;;;12.63;11.38;;;;;;;22.81;65.07;100136.91;5085846;28;20812;-66
2023/06/23 11:28:33;;;;;;;12.73;11.32;;;;;;;22.93;66.22;100136.16;5090197;28;20252;-63
2023/06/23 11:31:13;;;;;;;13.15;10.55;;;;;;;23.27;65.56;100134.94;5106832;28;20237;-63
2023/06/23 11:33:43;;;;;;;12.27;10.68;;;;;;;23.68;64.32;100123.59;5125590;27;20219;-65
2023/06/23 11:36:13;;;;;;;10.63;9.60;;;;;;;24.28;63.02;100127.53;5129543;27;20250;-64
2023/06/23 11:38:44;;;;;;;11.25;10.15;;;;;;;24.93;59.76;100129.25;5129134;27;20196;-64